Time;durP1;ratioP1;P1;durP2;ratioP2;P2;SDS_P1;SDS_P2;PMS_P1;PMS_P2;Temp;Humidity;BMP_temperature;BMP_pressure;BME280_temperature;BME280_humidity;BME280_pressure;Samples;Min_cycle;Max_cycle;Signal;HPM_P1;HPM_P2
2023/05/16 00:00:34;;;;;;;5.22;4.68;;;;;;;9.99;100.00;101038.16;6170097;23;20081;-67
2023/05/16 00:03:01;;;;;;;4.75;4.45;;;;;;;10.07;100.00;101048.31;6139607;23;20021;-67
2023/05/16 00:05:28;;;;;;;4.88;4.55;;;;;;;10.37;100.00;101111.69;6170214;23;20029;-67
2023/05/16 00:07:55;;;;;;;5.13;4.72;;;;;;;10.36;100.00;101104.75;6143934;23;20487;-66
2023/05/16 00:10:21;;;;;;;10.07;4.78;;;;;;;10.36;100.00;101110.00;6167276;23;20025;-67
2023/05/16 00:12:50;;;;;;;5.55;5.18;;;;;;;10.35;100.00;101116.16;6138695;23;20446;-67
2023/05/16 00:15:19;;;;;;;5.85;5.40;;;;;;;10.35;100.00;101107.44;6165786;23;20459;-67
2023/05/16 00:17:48;;;;;;;5.85;5.45;;;;;;;10.19;100.00;101089.72;6137171;23;20020;-67
2023/05/16 00:20:16;;;;;;;5.90;5.50;;;;;;;9.12;100.00;100919.66;6168927;23;20031;-67
2023/05/16 00:22:42;;;;;;;6.43;5.50;;;;;;;10.23;100.00;101102.72;6138357;23;20053;-67
2023/05/16 00:25:09;;;;;;;5.47;5.07;;;;;;;10.29;100.00;101123.41;6168808;23;20090;-66
2023/05/16 00:27:35;;;;;;;5.32;4.93;;;;;;;8.85;100.00;100892.03;6139050;23;20093;-66
2023/05/16 00:30:03;;;;;;;4.97;4.65;;;;;;;9.94;100.00;101073.34;6173171;23;20043;-66
2023/05/16 00:32:30;;;;;;;6.00;5.53;;;;;;;10.23;100.00;101129.78;6138789;23;20181;-67
2023/05/16 00:34:56;;;;;;;6.00;5.53;;;;;;;10.17;100.00;101128.28;6147603;23;20040;-67
2023/05/16 00:37:23;;;;;;;7.55;6.28;;;;;;;10.14;100.00;101127.56;6143922;23;20029;-66
2023/05/16 00:39:49;;;;;;;6.03;5.20;;;;;;;10.13;100.00;101128.47;6167277;23;20091;-66
2023/05/16 00:42:18;;;;;;;5.35;5.00;;;;;;;10.13;100.00;101126.69;6140976;23;20106;-66
2023/05/16 00:44:45;;;;;;;4.50;4.30;;;;;;;10.04;100.00;101140.19;6168725;23;20065;-66
2023/05/16 00:47:11;;;;;;;4.70;4.40;;;;;;;9.71;100.00;101085.69;6137665;23;20044;-65
2023/05/16 00:49:38;;;;;;;4.75;4.45;;;;;;;8.70;100.00;100930.13;6170783;23;20016;-66
2023/05/16 00:52:05;;;;;;;4.93;4.63;;;;;;;9.99;100.00;101137.78;6139725;23;20045;-66
2023/05/16 00:54:32;;;;;;;5.15;4.75;;;;;;;8.57;100.00;100942.88;6171648;23;20028;-66
2023/05/16 00:56:59;;;;;;;4.90;4.60;;;;;;;9.74;100.00;101139.72;6141294;23;20046;-66
2023/05/16 00:59:26;;;;;;;5.22;4.82;;;;;;;9.50;100.00;101111.03;6170615;23;20054;-66
2023/05/16 01:01:52;;;;;;;5.95;5.32;;;;;;;9.65;100.00;101140.97;6138425;23;20032;-66
2023/05/16 01:04:20;;;;;;;6.57;5.57;;;;;;;9.62;100.00;101141.09;6168904;23;20568;-67
2023/05/16 01:06:46;;;;;;;4.97;4.57;;;;;;;9.64;100.00;101141.91;6141268;23;20614;-66
2023/05/16 01:09:13;;;;;;;5.90;5.45;;;;;;;9.23;100.00;101070.25;6140659;23;20040;-66
2023/05/16 01:11:52;;;;;;;5.18;4.88;;;;;;;9.64;100.00;101159.38;6136792;23;20026;-66
2023/05/16 01:14:37;;;;;;;6.07;4.90;;;;;;;9.57;100.00;101161.41;6166748;23;20048;-66
2023/05/16 01:17:22;;;;;;;5.25;4.85;;;;;;;9.57;100.00;101166.63;6138378;23;20023;-66
2023/05/16 01:20:14;;;;;;;4.63;4.22;;;;;;;9.49;100.00;101166.94;6166114;23;20051;-67
2023/05/16 01:22:44;;;;;;;4.77;4.47;;;;;;;9.45;100.00;101173.22;6139228;23;20316;-67
2023/05/16 01:25:30;;;;;;;4.45;4.25;;;;;;;8.83;100.00;101085.75;6170499;23;20242;-67
2023/05/16 01:27:58;;;;;;;5.75;4.60;;;;;;;8.84;100.00;101115.38;6137570;23;20012;-67
2023/05/16 01:30:24;;;;;;;4.80;4.50;;;;;;;8.86;100.00;101092.63;6165972;23;20043;-67
2023/05/16 01:32:51;;;;;;;5.15;4.60;;;;;;;8.75;100.00;101103.50;6140949;23;20144;-67
2023/05/16 01:35:18;;;;;;;6.50;4.57;;;;;;;9.28;100.00;101183.50;6167721;23;20093;-67
2023/05/16 01:38:03;;;;;;;4.25;4.05;;;;;;;9.32;100.00;101190.31;6140027;23;20318;-67
2023/05/16 01:40:45;;;;;;;4.85;4.63;;;;;;;9.35;100.00;101190.22;6170252;23;20016;-67
2023/05/16 01:43:16;;;;;;;4.90;4.60;;;;;;;9.13;100.00;101162.25;6137347;23;20074;-67
2023/05/16 01:45:56;;;;;;;3.88;3.72;;;;;;;9.31;100.00;101192.09;6173108;23;20024;-66
2023/05/16 01:48:29;;;;;;;4.38;4.07;;;;;;;9.25;100.00;101187.09;6136543;23;20056;-67
2023/05/16 01:50:59;;;;;;;4.35;4.15;;;;;;;8.82;100.00;101149.50;6172110;23;20103;-66
2023/05/16 01:53:32;;;;;;;4.55;4.25;;;;;;;9.21;100.00;101203.84;6141038;23;20041;-67
2023/05/16 01:56:01;;;;;;;4.57;4.28;;;;;;;9.29;100.00;101203.56;6167376;23;20039;-67
2023/05/16 01:58:30;;;;;;;7.78;4.32;;;;;;;9.17;100.00;101203.09;6139522;23;20009;-66
2023/05/16 02:01:02;;;;;;;4.45;4.25;;;;;;;9.18;100.00;101215.31;6170250;23;20087;-67
2023/05/16 02:03:33;;;;;;;5.63;5.23;;;;;;;8.74;100.00;101152.38;6136961;23;20468;-66
2023/05/16 02:06:00;;;;;;;5.30;4.85;;;;;;;9.07;100.00;101222.69;6171999;23;20300;-66
2023/05/16 02:08:27;;;;;;;5.47;5.07;;;;;;;9.11;100.00;101221.66;6138995;23;20044;-66
2023/05/16 02:10:54;;;;;;;6.00;5.50;;;;;;;9.10;100.00;101227.84;6170200;23;20093;-66
2023/05/16 02:13:20;;;;;;;13.43;5.00;;;;;;;9.03;100.00;101233.34;6138942;23;20050;-66
2023/05/16 02:15:47;;;;;;;4.78;4.38;;;;;;;8.40;100.00;101137.03;6145591;23;20041;-67
2023/05/16 02:18:13;;;;;;;6.68;5.32;;;;;;;8.77;100.00;101196.75;6138618;23;20047;-67
2023/05/16 02:20:40;;;;;;;5.78;5.15;;;;;;;8.89;100.00;101234.69;6166316;23;20163;-67
2023/05/16 02:23:06;;;;;;;5.72;4.90;;;;;;;7.62;100.00;101036.09;6140420;23;21813;-67
2023/05/16 02:25:32;;;;;;;4.88;4.38;;;;;;;8.11;100.00;101128.44;6170487;23;20033;-67
2023/05/16 02:27:59;;;;;;;6.32;5.47;;;;;;;8.85;100.00;101247.97;6139656;23;20502;-67
2023/05/16 02:30:25;;;;;;;5.20;4.90;;;;;;;8.82;100.00;101248.06;6142761;23;20021;-66
2023/05/16 02:32:52;;;;;;;8.50;5.10;;;;;;;8.86;100.00;101270.59;6138755;23;20118;-67
2023/05/16 02:35:19;;;;;;;4.43;4.22;;;;;;;8.84;100.00;101260.22;6166340;23;20024;-67
2023/05/16 02:37:46;;;;;;;4.65;4.22;;;;;;;8.83;100.00;101257.63;6139851;23;20040;-67
2023/05/16 02:40:12;;;;;;;17.55;5.18;;;;;;;8.79;100.00;101260.34;6169879;23;20752;-67
2023/05/16 02:42:39;;;;;;;4.50;4.30;;;;;;;8.82;100.00;101267.25;6139749;23;20099;-67
2023/05/16 02:45:05;;;;;;;4.22;4.03;;;;;;;8.78;100.00;101269.13;6172016;23;20040;-67
2023/05/16 02:47:32;;;;;;;6.03;4.47;;;;;;;8.42;100.00;101232.03;6136348;23;20045;-67
2023/05/16 02:49:58;;;;;;;4.60;4.32;;;;;;;8.44;100.00;101226.72;6163516;23;20024;-67
2023/05/16 02:52:25;;;;;;;7.60;4.93;;;;;;;8.72;100.00;101286.78;6140619;23;20031;-67
2023/05/16 02:54:51;;;;;;;4.43;4.18;;;;;;;8.63;100.00;101280.13;6168878;23;20598;-67
2023/05/16 02:57:20;;;;;;;6.45;4.82;;;;;;;8.25;100.00;101218.63;6138181;23;20372;-67
2023/05/16 02:59:47;;;;;;;4.95;4.65;;;;;;;8.65;100.00;101287.94;6170414;23;20109;-67
2023/05/16 03:02:13;;;;;;;4.75;4.35;;;;;;;8.67;100.00;101289.56;6139347;23;20056;-66
2023/05/16 03:04:40;;;;;;;8.13;4.53;;;;;;;8.62;100.00;101288.03;6169691;23;20036;-67
2023/05/16 03:07:06;;;;;;;4.82;4.35;;;;;;;8.64;100.00;101288.81;6141111;23;20044;-67
2023/05/16 03:09:33;;;;;;;10.63;5.07;;;;;;;8.13;100.00;101214.69;6169351;23;20020;-67
2023/05/16 03:11:59;;;;;;;7.03;4.50;;;;;;;8.15;100.00;101213.72;6146172;23;20037;-68
2023/05/16 03:14:26;;;;;;;4.63;4.30;;;;;;;8.47;100.00;101271.94;6170923;23;20032;-67
2023/05/16 03:16:52;;;;;;;10.88;4.70;;;;;;;8.54;100.00;101288.31;6141981;23;20082;-67
2023/05/16 03:19:18;;;;;;;4.32;4.07;;;;;;;8.45;100.00;101273.75;6167058;23;20012;-67
2023/05/16 03:21:45;;;;;;;4.82;4.53;;;;;;;8.37;100.00;101266.13;6138573;23;20017;-67
2023/05/16 03:24:11;;;;;;;4.93;4.63;;;;;;;8.53;100.00;101295.28;6173205;23;20630;-67
2023/05/16 03:26:38;;;;;;;5.03;4.38;;;;;;;8.11;100.00;101229.56;6143727;23;20053;-67
2023/05/16 03:29:04;;;;;;;4.88;4.57;;;;;;;8.55;100.00;101310.94;6170764;23;20020;-67
2023/05/16 03:31:31;;;;;;;4.90;4.63;;;;;;;8.55;100.00;101322.25;6141966;23;20024;-67
2023/05/16 03:33:58;;;;;;;4.57;4.25;;;;;;;8.26;100.00;101278.75;6173746;23;20579;-67
2023/05/16 03:36:26;;;;;;;5.35;4.97;;;;;;;8.40;100.00;101320.13;6118812;23;20033;-67
2023/05/16 03:38:52;;;;;;;16.42;4.85;;;;;;;8.24;100.00;101293.63;6173154;23;20024;-67
2023/05/16 03:41:18;;;;;;;5.03;4.68;;;;;;;8.48;100.00;101327.72;6143208;23;20070;-67
2023/05/16 03:43:47;;;;;;;6.55;4.38;;;;;;;8.24;100.00;101292.75;6171345;23;20077;-66
2023/05/16 03:46:13;;;;;;;4.30;4.10;;;;;;;8.48;100.00;101330.34;6138513;23;20040;-66
2023/05/16 03:48:40;;;;;;;6.85;5.03;;;;;;;8.33;100.00;101316.84;6169929;23;20029;-66
2023/05/16 03:51:06;;;;;;;5.15;4.43;;;;;;;8.30;100.00;101314.34;6140729;23;20041;-67
2023/05/16 03:53:33;;;;;;;5.38;4.97;;;;;;;8.28;100.00;101326.59;6169900;23;20487;-66
2023/05/16 03:55:59;;;;;;;8.00;4.60;;;;;;;8.31;100.00;101321.25;6143984;23;20641;-70
2023/05/16 03:58:26;;;;;;;7.18;4.72;;;;;;;8.35;100.00;101328.09;6167612;23;20028;-69
2023/05/16 04:00:52;;;;;;;13.30;5.28;;;;;;;8.33;100.00;101343.00;6145314;23;20025;-69
2023/05/16 04:03:18;;;;;;;4.35;4.15;;;;;;;8.28;100.00;101342.28;6171596;23;20027;-69
2023/05/16 04:05:45;;;;;;;5.20;4.90;;;;;;;8.27;100.00;101350.19;6142408;23;20048;-70
2023/05/16 04:08:12;;;;;;;5.05;4.75;;;;;;;8.26;100.00;101351.94;6140224;23;20013;-70
2023/05/16 04:10:38;;;;;;;5.15;4.72;;;;;;;8.20;100.00;101357.38;6168416;23;20013;-70
2023/05/16 04:13:04;;;;;;;5.30;4.80;;;;;;;7.54;100.00;101284.47;6137914;23;20608;-70
2023/05/16 04:15:31;;;;;;;4.80;4.40;;;;;;;7.90;100.00;101333.91;6171913;23;20024;-69
2023/05/16 04:17:57;;;;;;;4.90;4.60;;;;;;;8.08;100.00;101357.75;6137543;23;20145;-70
2023/05/16 04:20:24;;;;;;;4.70;4.30;;;;;;;7.96;100.00;101372.91;6171200;23;20037;-70
2023/05/16 04:22:50;;;;;;;8.50;4.40;;;;;;;7.72;100.00;101340.53;6138972;23;20658;-70
2023/05/16 04:25:17;;;;;;;5.25;4.85;;;;;;;7.13;100.00;101263.03;6167971;23;20678;-70
2023/05/16 04:27:43;;;;;;;5.15;4.85;;;;;;;7.82;100.00;101393.38;6138572;23;20088;-70
2023/05/16 04:30:11;;;;;;;17.10;4.55;;;;;;;7.71;100.00;101361.47;6169485;23;20027;-70
2023/05/16 04:32:40;;;;;;;4.55;4.15;;;;;;;7.44;100.00;101322.22;6142159;23;20037;-70
2023/05/16 04:35:08;;;;;;;4.18;3.97;;;;;;;7.74;100.00;101385.78;6145099;23;20494;-70
2023/05/16 04:37:34;;;;;;;4.65;4.25;;;;;;;7.51;100.00;101359.44;6138127;23;20017;-70
2023/05/16 04:40:01;;;;;;;6.00;5.38;;;;;;;6.94;100.00;101278.38;6172162;23;20030;-69
2023/05/16 04:42:27;;;;;;;4.03;3.83;;;;;;;7.34;100.00;101345.13;6140783;23;20024;-69
2023/05/16 04:44:55;;;;;;;7.95;4.38;;;;;;;7.57;100.00;101388.84;6143342;23;20082;-70
2023/05/16 04:47:21;;;;;;;4.78;4.30;;;;;;;7.42;100.00;101368.41;6172264;23;20739;-69
2023/05/16 04:49:48;;;;;;;6.00;4.90;;;;;;;7.46;100.00;101332.63;6144578;23;20029;-70
2023/05/16 04:52:14;;;;;;;5.53;4.97;;;;;;;8.33;100.00;101416.22;6171511;23;20085;-70
2023/05/16 04:54:41;;;;;;;5.13;4.45;;;;;;;8.86;100.00;101417.16;6117430;23;20033;-70
2023/05/16 04:57:07;;;;;;;7.18;4.45;;;;;;;8.92;100.00;101362.88;6145777;23;20025;-70
2023/05/16 04:59:33;;;;;;;4.65;4.38;;;;;;;8.61;100.00;101304.63;6141511;23;20020;-70
2023/05/16 05:02:00;;;;;;;5.15;4.57;;;;;;;9.84;100.00;101408.44;6140560;23;20037;-70
2023/05/16 05:04:26;;;;;;;5.18;4.88;;;;;;;9.51;100.00;101322.31;6136315;23;20921;-70
2023/05/16 05:06:53;;;;;;;9.50;5.07;;;;;;;10.78;100.00;101397.75;6174616;23;20036;-68
2023/05/16 05:09:19;;;;;;;13.65;5.25;;;;;;;10.64;93.88;101337.09;6143559;23;20717;-69
2023/05/16 05:11:46;;;;;;;5.40;4.93;;;;;;;10.82;90.05;101329.34;6168862;23;20016;-68
2023/05/16 05:14:12;;;;;;;11.30;5.63;;;;;;;10.96;87.51;101319.97;6117409;23;20024;-69
2023/05/16 05:16:39;;;;;;;12.98;5.68;;;;;;;11.11;85.79;101305.31;6169092;23;20052;-68
2023/05/16 05:19:07;;;;;;;6.07;5.03;;;;;;;11.70;84.35;101326.28;6144810;23;20016;-68
2023/05/16 05:21:34;;;;;;;15.35;6.05;;;;;;;11.96;81.50;101302.25;6172490;23;21246;-69
2023/05/16 05:24:00;;;;;;;5.40;4.97;;;;;;;11.90;79.96;101278.88;6137307;23;20099;-69
2023/05/16 05:26:27;;;;;;;5.55;5.15;;;;;;;11.62;79.98;101266.16;6167000;23;20039;-69
2023/05/16 05:28:54;;;;;;;5.57;5.07;;;;;;;11.52;79.52;101249.97;6140564;23;20069;-68
2023/05/16 05:31:32;;;;;;;4.82;4.53;;;;;;;11.58;79.16;101236.53;6169775;23;20638;-69
2023/05/16 05:33:59;;;;;;;5.78;5.28;;;;;;;11.14;78.08;101207.09;6136485;23;20027;-68
2023/05/16 05:36:26;;;;;;;6.88;5.45;;;;;;;11.49;79.57;101275.56;6169858;23;20631;-68
2023/05/16 05:38:52;;;;;;;6.80;5.30;;;;;;;11.91;79.53;101285.84;6135775;23;20009;-68
2023/05/16 05:41:20;;;;;;;9.27;5.45;;;;;;;12.42;77.76;101277.22;6169225;23;20491;-68
2023/05/16 05:43:46;;;;;;;7.60;5.25;;;;;;;12.43;75.10;101205.22;6138371;23;20032;-68
2023/05/16 05:46:16;;;;;;;9.05;5.80;;;;;;;12.51;73.39;101179.38;6169858;23;20056;-68
2023/05/16 05:48:42;;;;;;;11.77;5.60;;;;;;;12.84;72.56;101189.03;6139280;23;20042;-69
2023/05/16 05:51:09;;;;;;;10.10;5.43;;;;;;;12.78;72.26;101159.44;6171085;23;20098;-69
2023/05/16 05:53:35;;;;;;;6.72;5.22;;;;;;;13.10;72.58;101201.63;6140466;23;20121;-69
2023/05/16 05:56:02;;;;;;;12.60;5.07;;;;;;;13.14;72.02;101182.06;6171561;23;20694;-69
2023/05/16 05:58:28;;;;;;;5.97;5.28;;;;;;;13.46;70.75;101150.47;6138519;23;20017;-69
2023/05/16 06:00:54;;;;;;;8.52;5.55;;;;;;;13.22;70.53;101104.38;6147481;23;20024;-68
2023/05/16 06:03:21;;;;;;;5.38;4.97;;;;;;;13.71;70.17;101149.91;6134778;23;20028;-69
2023/05/16 06:05:47;;;;;;;5.82;4.85;;;;;;;13.06;70.38;101093.84;6170970;23;20032;-69
2023/05/16 06:08:14;;;;;;;5.65;4.85;;;;;;;12.95;70.31;101121.66;6136331;23;20005;-69
2023/05/16 06:10:40;;;;;;;5.13;4.75;;;;;;;12.60;71.39;101134.09;6168688;23;20102;-68
2023/05/16 06:13:07;;;;;;;5.18;4.78;;;;;;;12.21;71.47;101122.13;6139997;23;20040;-69
2023/05/16 06:15:33;;;;;;;7.88;5.22;;;;;;;11.72;73.83;101146.47;6171397;23;20413;-68
2023/05/16 06:18:02;;;;;;;6.13;5.65;;;;;;;11.27;76.13;101192.47;6139012;23;20588;-69
2023/05/16 06:20:28;;;;;;;8.43;5.93;;;;;;;11.04;77.89;101218.97;6165973;23;20069;-69
2023/05/16 06:22:55;;;;;;;4.90;4.60;;;;;;;10.79;78.47;101214.81;6102615;23;20628;-68
2023/05/16 06:25:21;;;;;;;5.15;4.85;;;;;;;10.33;79.64;101183.59;6164189;23;20799;-68
2023/05/16 06:27:48;;;;;;;9.55;5.55;;;;;;;10.69;80.94;101260.78;6129227;23;20020;-68
2023/05/16 06:30:14;;;;;;;5.78;5.38;;;;;;;11.05;82.11;101302.94;6168213;23;20039;-68
2023/05/16 06:32:41;;;;;;;5.15;4.75;;;;;;;11.05;81.26;101284.56;6136579;23;20684;-70
2023/05/16 06:35:08;;;;;;;6.05;5.18;;;;;;;10.92;80.99;101263.22;6163823;23;20046;-69
2023/05/16 06:37:35;;;;;;;5.13;4.80;;;;;;;11.04;80.79;101282.84;6133558;23;20034;-69
2023/05/16 06:40:02;;;;;;;5.00;4.60;;;;;;;10.48;79.40;101194.31;6139599;23;20482;-69
2023/05/16 06:42:28;;;;;;;9.15;5.28;;;;;;;10.77;79.25;101256.91;6136451;23;20049;-69
2023/05/16 06:44:54;;;;;;;12.45;5.55;;;;;;;10.86;78.95;101260.03;6169503;23;20087;-69
2023/05/16 06:47:21;;;;;;;5.10;4.65;;;;;;;11.21;79.05;101274.22;6138878;23;20638;-69
2023/05/16 06:49:48;;;;;;;5.65;4.85;;;;;;;10.97;79.16;101215.78;6163749;23;20096;-69
2023/05/16 06:52:14;;;;;;;6.53;5.15;;;;;;;10.96;78.44;101203.53;6137175;23;20032;-70
2023/05/16 06:54:41;;;;;;;4.97;4.65;;;;;;;11.27;78.10;101247.66;6158214;23;20027;-70
2023/05/16 06:57:07;;;;;;;5.30;4.90;;;;;;;11.21;76.94;101223.47;6141510;23;20025;-70
2023/05/16 06:59:35;;;;;;;4.90;4.60;;;;;;;10.91;76.51;101190.63;6114319;23;20569;-70
2023/05/16 07:02:01;;;;;;;9.25;5.28;;;;;;;11.10;77.19;101221.31;6164867;23;20677;-69
2023/05/16 07:04:28;;;;;;;5.55;4.97;;;;;;;10.51;77.88;101139.09;6113552;23;20041;-70
2023/05/16 07:06:54;;;;;;;12.68;5.22;;;;;;;10.68;76.43;101198.69;6163415;23;20028;-70
2023/05/16 07:09:21;;;;;;;13.00;5.03;;;;;;;10.82;77.36;101211.19;6136770;23;20487;-69
2023/05/16 07:11:47;;;;;;;6.45;4.43;;;;;;;10.69;75.00;101148.75;6147538;23;20514;-70
2023/05/16 07:14:13;;;;;;;8.98;4.80;;;;;;;11.20;75.94;101216.47;6107266;23;20035;-69
2023/05/16 07:16:40;;;;;;;5.60;4.70;;;;;;;11.34;75.07;101224.56;6137437;23;20033;-69
2023/05/16 07:19:07;;;;;;;4.80;4.50;;;;;;;10.86;74.04;101145.34;6111197;23;20054;-69
2023/05/16 07:21:33;;;;;;;9.10;5.60;;;;;;;11.03;72.55;101157.72;6139622;23;20051;-70
2023/05/16 07:24:00;;;;;;;8.43;5.03;;;;;;;11.09;74.63;101188.09;6111286;23;20821;-70
2023/05/16 07:26:27;;;;;;;8.10;5.50;;;;;;;11.34;74.23;101203.53;6137931;23;20486;-69
2023/05/16 07:28:54;;;;;;;4.75;4.40;;;;;;;11.73;73.69;101215.72;6085729;23;20037;-69
2023/05/16 07:31:20;;;;;;;9.70;4.70;;;;;;;11.87;73.38;101213.25;6136847;23;20027;-70
2023/05/16 07:33:47;;;;;;;4.60;4.38;;;;;;;12.31;71.67;101204.09;6109159;23;20018;-69
2023/05/16 07:36:14;;;;;;;9.32;4.65;;;;;;;12.13;70.81;101135.69;6138418;23;20013;-70
2023/05/16 07:38:43;;;;;;;5.53;4.47;;;;;;;12.30;68.72;101111.09;6108951;23;20029;-70
2023/05/16 07:41:10;;;;;;;7.32;4.72;;;;;;;12.59;67.96;101103.47;6113852;23;20084;-69
2023/05/16 07:43:36;;;;;;;5.22;4.90;;;;;;;12.68;66.88;101086.28;6107845;23;20116;-69
2023/05/16 07:46:04;;;;;;;4.95;4.65;;;;;;;12.38;66.00;101029.97;6140500;23;20032;-69
2023/05/16 07:48:30;;;;;;;13.75;4.93;;;;;;;12.19;66.07;101013.50;6105172;23;20600;-70
2023/05/16 07:50:57;;;;;;;6.28;4.55;;;;;;;12.48;67.32;101096.13;6118191;23;20021;-70
2023/05/16 07:53:23;;;;;;;7.15;4.97;;;;;;;11.83;65.94;100995.22;6111305;23;20094;-70
2023/05/16 07:55:50;;;;;;;6.00;4.72;;;;;;;12.36;68.59;101126.56;6141966;23;20028;-69
2023/05/16 07:58:16;;;;;;;4.60;4.40;;;;;;;12.61;68.11;101130.56;6111510;23;20025;-69
2023/05/16 08:00:43;;;;;;;10.23;4.72;;;;;;;12.08;66.69;101037.72;6139026;23;20100;-70
2023/05/16 08:03:09;;;;;;;5.22;4.75;;;;;;;12.21;66.37;101037.06;6113540;23;20044;-69
2023/05/16 08:05:36;;;;;;;5.90;5.05;;;;;;;11.96;66.59;100998.91;6112439;23;20017;-69
2023/05/16 08:08:03;;;;;;;5.10;4.60;;;;;;;12.41;66.28;101043.88;6140053;23;20045;-70
2023/05/16 08:10:29;;;;;;;7.88;4.65;;;;;;;11.90;65.39;100965.06;6116284;23;20045;-70
2023/05/16 08:12:55;;;;;;;4.47;4.28;;;;;;;11.51;64.38;100917.09;6173253;23;20020;-68
2023/05/16 08:15:22;;;;;;;12.85;5.03;;;;;;;11.81;66.31;100982.16;6145017;23;20041;-71
2023/05/16 08:17:49;;;;;;;9.23;5.10;;;;;;;12.34;64.69;101007.38;6172817;23;20681;-71
2023/05/16 08:20:16;;;;;;;8.35;5.60;;;;;;;11.90;64.00;100915.94;6143210;23;20582;-69
2023/05/16 08:22:42;;;;;;;4.97;4.57;;;;;;;12.28;65.20;101017.41;6173573;23;20081;-69
2023/05/16 08:25:09;;;;;;;5.18;4.88;;;;;;;12.35;65.72;101018.78;6142224;23;20104;-70
2023/05/16 08:27:35;;;;;;;4.80;4.50;;;;;;;12.10;62.80;100901.69;6174581;23;20016;-68
2023/05/16 08:30:02;;;;;;;5.03;4.20;;;;;;;12.14;63.64;100899.75;6143133;23;20027;-69
2023/05/16 08:32:29;;;;;;;4.80;4.50;;;;;;;12.38;64.05;100921.19;6142793;23;20416;-68
2023/05/16 08:34:55;;;;;;;4.25;4.05;;;;;;;12.48;63.43;100956.59;6174561;23;20504;-68
2023/05/16 08:37:22;;;;;;;4.50;4.30;;;;;;;11.83;64.75;100911.06;6143693;23;20548;-68
2023/05/16 08:39:48;;;;;;;4.90;4.53;;;;;;;11.69;64.53;100880.28;6174664;23;20664;-69
2023/05/16 08:42:15;;;;;;;4.43;4.22;;;;;;;11.76;63.29;100850.91;6146020;23;22164;-69
2023/05/16 08:44:41;;;;;;;7.57;5.05;;;;;;;12.33;63.04;100925.91;6141274;23;20035;-69
2023/05/16 08:47:16;;;;;;;6.22;4.80;;;;;;;12.05;64.09;100906.38;6144747;23;20021;-69
2023/05/16 08:49:47;;;;;;;4.90;4.60;;;;;;;12.20;60.90;100769.63;6145677;23;22124;-69
2023/05/16 08:52:18;;;;;;;5.18;4.72;;;;;;;12.75;59.57;100779.56;6142488;23;20107;-69
2023/05/16 08:54:45;;;;;;;8.70;4.78;;;;;;;12.67;59.55;100761.56;6159200;23;20116;-69
2023/05/16 08:57:20;;;;;;;5.50;4.88;;;;;;;12.57;60.98;100819.19;6143313;23;20052;-69
2023/05/16 08:59:48;;;;;;;4.72;4.43;;;;;;;12.41;58.64;100715.75;6165918;23;20028;-69
2023/05/16 09:02:14;;;;;;;4.50;4.20;;;;;;;11.97;60.23;100735.81;6141787;23;20017;-68
2023/05/16 09:04:42;;;;;;;4.25;4.05;;;;;;;12.08;59.59;100732.56;6169932;23;20556;-70
2023/05/16 09:07:08;;;;;;;4.43;4.20;;;;;;;11.68;60.98;100692.75;6143315;23;21448;-69
2023/05/16 09:09:35;;;;;;;4.78;4.38;;;;;;;13.08;59.92;100836.41;6169709;23;20093;-68
2023/05/16 09:12:01;;;;;;;4.60;4.30;;;;;;;12.10;57.12;100574.66;6123736;23;20036;-69
2023/05/16 09:14:28;;;;;;;5.20;4.90;;;;;;;12.18;57.90;100639.00;6110145;23;20051;-69
2023/05/16 09:17:08;;;;;;;6.45;4.70;;;;;;;12.84;58.00;100776.34;6120091;23;20559;-69
2023/05/16 09:19:39;;;;;;;;;;;;;;;13.38;58.26;100809.16;6144582;23;20049;-69
2023/05/16 09:22:08;;;;;;;4.28;4.07;;;;;;;13.30;56.35;100662.03;6114998;23;19917;-69
2023/05/16 09:24:41;;;;;;;10.93;4.63;;;;;;;13.01;57.01;100693.66;6138801;23;20395;-69
2023/05/16 09:27:12;;;;;;;4.30;4.10;;;;;;;13.02;56.87;100660.25;6090007;23;20037;-68
2023/05/16 09:29:40;;;;;;;4.95;4.65;;;;;;;12.89;55.84;100602.22;6145394;23;20094;-69
2023/05/16 09:32:14;;;;;;;6.32;4.70;;;;;;;12.56;57.71;100671.84;6114098;23;20037;-68
2023/05/16 09:34:48;;;;;;;4.80;4.40;;;;;;;12.29;58.64;100729.63;6149755;23;20520;-69
2023/05/16 09:37:15;;;;;;;5.97;4.45;;;;;;;12.98;57.88;100788.69;6109212;23;20089;-69
2023/05/16 09:39:48;;;;;;;4.88;4.57;;;;;;;12.88;56.07;100684.81;6145410;23;20090;-69
2023/05/16 09:42:17;;;;;;;5.35;4.85;;;;;;;13.33;56.33;100747.03;6093392;23;20083;-69
2023/05/16 09:44:53;;;;;;;7.68;4.80;;;;;;;13.34;58.68;100892.84;6149903;23;20016;-69
2023/05/16 09:47:20;;;;;;;4.80;4.50;;;;;;;13.05;56.22;100754.91;6116634;23;20017;-69
2023/05/16 09:49:51;;;;;;;9.43;4.55;;;;;;;12.95;55.14;100691.41;6141200;23;20550;-69
2023/05/16 09:52:18;;;;;;;7.55;5.07;;;;;;;12.69;54.01;100633.31;6113070;23;20127;-69
2023/05/16 09:58:36;;;;;;;4.85;4.65;;;;;;;13.31;55.73;100783.16;6082576;23;20100;-68
2023/05/16 10:01:04;;;;;;;5.47;5.18;;;;;;;13.85;54.77;100839.56;6126482;23;20048;-69
2023/05/16 10:03:34;;;;;;;5.22;4.75;;;;;;;13.90;54.40;100775.03;6109124;23;20529;-69
2023/05/16 10:06:01;;;;;;;5.10;4.80;;;;;;;12.94;53.63;100627.34;6134653;23;20025;-69
2023/05/16 10:08:30;;;;;;;5.13;4.82;;;;;;;13.03;55.38;100740.97;6106064;23;20039;-70
2023/05/16 10:10:57;;;;;;;4.90;4.50;;;;;;;13.41;55.60;100882.75;6140662;23;20042;-69
2023/05/16 10:13:28;;;;;;;5.00;4.60;;;;;;;13.67;56.87;100941.81;6107845;23;20017;-68
2023/05/16 10:15:56;;;;;;;4.50;4.30;;;;;;;13.73;55.61;100883.41;6149411;23;20500;-69
2023/05/16 10:18:29;;;;;;;4.75;4.45;;;;;;;13.85;53.36;100782.41;6111089;23;20047;-69
2023/05/16 10:21:04;;;;;;;4.40;4.20;;;;;;;14.04;52.28;100725.78;6108213;23;20029;-68
2023/05/16 10:23:32;;;;;;;4.45;4.25;;;;;;;13.94;54.00;100828.44;6114181;23;20021;-69
2023/05/16 10:26:02;;;;;;;8.63;4.70;;;;;;;13.52;54.90;100827.59;6132025;23;20032;-69
2023/05/16 10:28:28;;;;;;;5.40;5.00;;;;;;;13.89;54.16;100865.69;6090418;23;20021;-69
2023/05/16 10:30:56;;;;;;;4.90;4.50;;;;;;;13.70;54.20;100834.34;6138918;23;20032;-69
2023/05/16 10:33:22;;;;;;;4.95;4.60;;;;;;;14.05;53.01;100827.75;6110984;23;20027;-69
2023/05/16 10:35:50;;;;;;;4.78;4.57;;;;;;;14.54;53.90;100938.94;6141848;23;20065;-69
2023/05/16 10:38:18;;;;;;;4.78;4.45;;;;;;;14.50;52.25;100809.84;6087671;23;20028;-69
2023/05/16 10:40:46;;;;;;;4.80;4.50;;;;;;;14.78;50.90;100805.38;6138006;23;20021;-69
2023/05/16 10:43:25;;;;;;;4.80;4.60;;;;;;;14.94;51.66;100869.44;6115528;23;20084;-69
2023/05/16 10:45:57;;;;;;;7.45;4.85;;;;;;;14.83;51.30;100801.44;6146126;23;20029;-69
2023/05/16 10:48:35;;;;;;;5.57;5.10;;;;;;;14.56;52.85;100883.41;6116119;23;20013;-69
2023/05/16 10:51:03;;;;;;;4.95;4.60;;;;;;;14.28;51.47;100784.03;6143070;23;20090;-69
2023/05/16 10:53:34;;;;;;;6.10;4.80;;;;;;;13.40;50.37;100615.66;6113369;23;20805;-68
2023/05/16 10:56:01;;;;;;;5.03;4.60;;;;;;;13.98;50.38;100710.38;6133542;23;20048;-68
2023/05/16 10:58:37;;;;;;;5.03;4.70;;;;;;;13.84;54.10;100896.78;6116176;23;20073;-68
2023/05/16 11:01:17;;;;;;;5.20;5.00;;;;;;;13.53;54.76;100911.88;6132025;23;20267;-69
2023/05/16 11:03:56;;;;;;;5.18;4.78;;;;;;;13.68;54.32;100885.50;6117335;23;20017;-68
2023/05/16 11:06:24;;;;;;;5.03;4.63;;;;;;;13.49;54.55;100901.59;6107793;23;20032;-68
2023/05/16 11:09:08;;;;;;;4.82;4.53;;;;;;;13.67;55.09;100939.16;6113600;23;20538;-69
2023/05/16 11:11:59;;;;;;;9.63;5.05;;;;;;;13.73;54.61;100942.28;6134784;23;20597;-68
2023/05/16 11:14:37;;;;;;;5.40;5.00;;;;;;;13.89;54.51;100967.72;6112678;23;20025;-68
2023/05/16 11:17:21;;;;;;;4.95;4.60;;;;;;;13.74;55.18;100957.16;6151544;23;20024;-69
2023/05/16 11:19:50;;;;;;;5.28;4.80;;;;;;;13.50;56.08;101001.69;6114786;23;20033;-68
2023/05/16 11:22:22;;;;;;;5.15;4.65;;;;;;;13.50;56.50;101032.50;6148616;23;20049;-68
2023/05/16 11:25:00;;;;;;;;;;;;;;;13.40;56.75;101055.06;6114928;23;20641;-68
2023/05/16 11:27:31;;;;;;;4.88;4.57;;;;;;;13.28;57.83;101072.41;6149303;23;20014;-68
2023/05/16 11:30:04;;;;;;;5.25;4.95;;;;;;;13.17;57.81;101058.06;6085515;23;20021;-68
2023/05/16 11:32:32;;;;;;;;;;;;;;;13.27;57.14;101060.16;6152713;23;20036;-68